createdAt,value
2023-07-16T00:00:55.379Z,28.39
2023-07-16T00:03:29.973Z,28.37
2023-07-16T00:06:05.827Z,28.31
2023-07-16T00:08:47.621Z,28.24
2023-07-16T00:11:28.354Z,28.18
2023-07-16T00:13:58.284Z,28.13
2023-07-16T00:16:39.099Z,28.06
2023-07-16T00:19:22.710Z,28.06
2023-07-16T00:21:57.528Z,27.98
2023-07-16T00:24:29.047Z,27.95
2023-07-16T00:27:05.419Z,27.92
2023-07-16T00:29:40.686Z,27.88
2023-07-16T00:32:31.111Z,27.81
2023-07-16T00:35:18.220Z,27.84
2023-07-16T00:37:55.246Z,27.78
2023-07-16T00:40:28.844Z,27.79
2023-07-16T00:43:04.935Z,27.75
2023-07-16T00:45:41.073Z,27.69
2023-07-16T00:48:26.388Z,27.69
2023-07-16T00:51:01.176Z,27.56
2023-07-16T00:53:39.300Z,27.50
2023-07-16T00:56:15.015Z,27.54
2023-07-16T00:58:50.921Z,27.52
2023-07-16T01:01:31.990Z,27.44
2023-07-16T01:04:11.528Z,27.51
2023-07-16T01:07:00.334Z,27.50
2023-07-16T01:09:47.351Z,27.50
2023-07-16T01:12:31.617Z,27.48
2023-07-16T01:15:19.824Z,27.45
2023-07-16T01:17:57.876Z,27.49
2023-07-16T01:20:46.050Z,27.45
2023-07-16T01:23:45.750Z,27.45
2023-07-16T01:26:45.802Z,27.40
2023-07-16T01:29:56.096Z,27.37
2023-07-16T01:32:32.240Z,27.38
2023-07-16T01:35:10.807Z,27.36
2023-07-16T01:37:47.592Z,27.35
2023-07-16T01:40:39.873Z,27.33
2023-07-16T01:43:17.759Z,27.28
2023-07-16T01:45:59.117Z,27.26
2023-07-16T01:48:45.446Z,27.22
2023-07-16T01:51:26.216Z,27.26
2023-07-16T01:54:00.006Z,27.25
2023-07-16T01:56:40.642Z,27.17
2023-07-16T01:59:19.057Z,27.21
2023-07-16T02:01:52.878Z,27.18
2023-07-16T02:04:28.146Z,27.18
2023-07-16T02:06:59.427Z,27.16
2023-07-16T02:09:38.206Z,27.10
2023-07-16T02:12:13.729Z,27.12
2023-07-16T02:14:52.029Z,27.07
2023-07-16T02:17:34.053Z,27.10
2023-07-16T02:20:12.083Z,27.06
2023-07-16T02:22:53.228Z,27.03
2023-07-16T02:25:34.958Z,27.03
2023-07-16T02:28:21.684Z,26.98
2023-07-16T02:30:59.855Z,26.99
2023-07-16T02:33:46.023Z,26.93
2023-07-16T02:36:41.440Z,26.94
2023-07-16T02:39:14.374Z,26.90
2023-07-16T02:42:05.650Z,26.85
2023-07-16T02:44:43.394Z,26.84
2023-07-16T02:47:21.083Z,26.79
2023-07-16T02:50:06.966Z,26.73
2023-07-16T02:52:49.511Z,26.68
2023-07-16T02:55:28.382Z,26.68
2023-07-16T02:58:15.699Z,26.66
2023-07-16T03:00:54.302Z,26.62
2023-07-16T03:03:35.412Z,26.46
2023-07-16T03:06:27.064Z,26.54
2023-07-16T03:09:06.812Z,26.54
2023-07-16T03:11:37.968Z,26.45
2023-07-16T03:14:12.332Z,26.50
2023-07-16T03:16:55.616Z,26.47
2023-07-16T03:19:36.951Z,26.44
2023-07-16T03:22:14.343Z,26.38
2023-07-16T03:24:53.765Z,26.35
2023-07-16T03:27:32.944Z,26.29
2023-07-16T03:30:11.146Z,26.31
2023-07-16T03:32:53.341Z,26.29
2023-07-16T03:35:45.579Z,26.32
2023-07-16T03:38:30.864Z,26.29
2023-07-16T03:41:12.386Z,26.30
2023-07-16T03:43:53.768Z,26.30
2023-07-16T03:46:34.673Z,26.26
2023-07-16T03:49:17.925Z,26.23
2023-07-16T03:51:55.611Z,26.26
2023-07-16T03:54:36.124Z,26.27
2023-07-16T03:57:13.862Z,26.30
2023-07-16T03:59:50.282Z,26.28
2023-07-16T04:02:25.382Z,26.30
2023-07-16T04:05:12.304Z,26.34
2023-07-16T04:07:49.272Z,26.32
2023-07-16T04:10:35.155Z,26.33
2023-07-16T04:13:11.298Z,26.34
2023-07-16T04:16:01.020Z,26.34
2023-07-16T04:18:35.565Z,26.41
2023-07-16T04:21:10.855Z,26.43
2023-07-16T04:23:43.754Z,26.50
2023-07-16T04:26:23.590Z,26.57
2023-07-16T04:29:03.219Z,26.60
2023-07-16T04:31:41.394Z,26.62
2023-07-16T04:34:13.022Z,26.63
2023-07-16T04:36:47.330Z,26.70
2023-07-16T04:39:28.070Z,26.71
2023-07-16T04:42:07.381Z,26.79
2023-07-16T04:44:44.663Z,26.82
2023-07-16T04:47:19.749Z,26.90
2023-07-16T04:49:56.325Z,26.90
2023-07-16T04:52:31.879Z,26.77
2023-07-16T04:55:21.553Z,26.97
2023-07-16T04:57:59.292Z,27.13
2023-07-16T05:00:33.849Z,27.17
2023-07-16T05:03:13.822Z,27.24
2023-07-16T05:05:55.493Z,27.23
2023-07-16T05:08:31.734Z,27.29
2023-07-16T05:11:21.922Z,27.35
2023-07-16T05:14:24.018Z,27.34
2023-07-16T05:17:04.225Z,27.48
2023-07-16T05:19:44.320Z,27.54
2023-07-16T05:22:21.102Z,27.61
2023-07-16T05:25:03.998Z,27.69
2023-07-16T05:27:42.563Z,27.76
2023-07-16T05:30:20.416Z,27.82
2023-07-16T05:33:03.090Z,27.95
2023-07-16T05:35:46.344Z,27.96
2023-07-16T05:38:20.845Z,27.99
2023-07-16T05:40:57.351Z,27.99
2023-07-16T05:43:32.405Z,28.13
2023-07-16T05:46:22.126Z,28.25
2023-07-16T05:49:05.597Z,28.24
2023-07-16T05:51:51.842Z,28.33
2023-07-16T05:54:34.488Z,28.46
2023-07-16T05:57:18.149Z,28.46
2023-07-16T06:00:07.393Z,28.52
2023-07-16T06:03:05.745Z,28.56
2023-07-16T06:05:38.898Z,28.72
2023-07-16T06:08:21.195Z,28.77
2023-07-16T06:11:03.651Z,28.85
2023-07-16T06:13:37.289Z,28.89
2023-07-16T06:16:20.581Z,28.95
2023-07-16T06:19:01.337Z,29.06
2023-07-16T06:21:44.327Z,29.18
2023-07-16T06:24:26.633Z,29.22
2023-07-16T06:26:57.539Z,29.40
2023-07-16T06:29:30.720Z,29.52
2023-07-16T06:32:15.745Z,29.56
2023-07-16T06:34:59.019Z,29.67
2023-07-16T06:37:49.840Z,29.77
2023-07-16T06:40:40.383Z,29.87
2023-07-16T06:43:15.458Z,29.93
2023-07-16T06:45:58.816Z,30.04
2023-07-16T06:48:38.156Z,30.12
2023-07-16T06:51:22.313Z,30.20
2023-07-16T06:53:58.850Z,30.29
2023-07-16T06:56:41.925Z,30.37
2023-07-16T06:59:29.264Z,30.48
2023-07-16T07:02:07.279Z,30.58
2023-07-16T07:04:42.175Z,30.68
2023-07-16T07:07:22.247Z,30.68
2023-07-16T07:09:57.792Z,30.80
2023-07-16T07:12:41.988Z,30.91
2023-07-16T07:15:16.896Z,30.98
2023-07-16T07:17:57.741Z,31.02
2023-07-16T07:20:32.791Z,31.11
2023-07-16T07:23:11.366Z,31.18
2023-07-16T07:25:50.570Z,31.20
2023-07-16T07:28:31.615Z,31.23
2023-07-16T07:31:08.053Z,31.19
2023-07-16T07:33:43.689Z,31.28
2023-07-16T07:36:16.699Z,31.30
2023-07-16T07:38:55.320Z,31.39
2023-07-16T07:41:30.154Z,31.46
2023-07-16T07:44:09.683Z,31.48
2023-07-16T07:46:49.072Z,31.52
2023-07-16T07:49:33.308Z,31.59
2023-07-16T07:52:16.565Z,31.67
2023-07-16T07:55:03.518Z,31.65
2023-07-16T07:57:42.884Z,31.78
2023-07-16T08:00:30.250Z,31.72
2023-07-16T08:03:12.132Z,31.78
2023-07-16T08:05:47.945Z,31.90
2023-07-16T08:08:22.688Z,31.97
2023-07-16T08:11:01.751Z,32.03
2023-07-16T08:13:43.628Z,32.02
2023-07-16T08:16:24.010Z,32.01
2023-07-16T08:19:02.268Z,32.11
2023-07-16T08:21:47.101Z,32.16
2023-07-16T08:24:28.137Z,32.23
2023-07-16T08:27:16.512Z,32.31
2023-07-16T08:29:58.082Z,32.42
2023-07-16T08:32:38.595Z,32.50
2023-07-16T08:35:19.784Z,32.58
2023-07-16T08:38:05.426Z,32.65
2023-07-16T08:40:49.990Z,32.79
2023-07-16T08:43:37.278Z,32.90
2023-07-16T08:46:11.872Z,32.98
2023-07-16T08:48:47.105Z,33.09
2023-07-16T08:51:23.536Z,33.16
2023-07-16T08:54:18.681Z,33.28
2023-07-16T08:56:55.402Z,33.42
2023-07-16T08:59:41.920Z,33.41
2023-07-16T09:02:25.143Z,33.52
2023-07-16T09:05:07.234Z,33.58
2023-07-16T09:07:54.335Z,33.69
2023-07-16T09:10:35.183Z,33.79
2023-07-16T09:13:10.801Z,33.86
2023-07-16T09:15:47.572Z,33.98
2023-07-16T09:18:29.757Z,34.06
2023-07-16T09:21:16.064Z,34.08
2023-07-16T09:23:58.039Z,34.10
2023-07-16T09:26:31.363Z,34.16
2023-07-16T09:29:12.789Z,34.25
2023-07-16T09:32:13.686Z,34.37
2023-07-16T09:34:57.025Z,34.46
2023-07-16T09:37:37.076Z,34.59
2023-07-16T09:40:20.162Z,34.68
2023-07-16T09:42:57.149Z,34.81
2023-07-16T09:45:40.585Z,34.89
2023-07-16T09:48:23.471Z,34.93
2023-07-16T09:51:09.389Z,35.00
2023-07-16T09:53:52.041Z,35.12
2023-07-16T09:56:27.646Z,35.17
2023-07-16T09:59:02.576Z,35.26
2023-07-16T10:01:49.949Z,35.33
2023-07-16T10:04:46.874Z,35.35
2023-07-16T10:07:28.828Z,35.40
2023-07-16T10:10:10.847Z,35.51
2023-07-16T10:12:48.563Z,35.52
2023-07-16T10:15:37.324Z,35.59
2023-07-16T10:18:14.169Z,35.67
2023-07-16T10:20:59.644Z,35.70
2023-07-16T10:23:56.925Z,35.76
2023-07-16T10:26:43.711Z,35.83
2023-07-16T10:29:23.259Z,35.90
2023-07-16T10:32:01.872Z,36.02
2023-07-16T10:34:38.262Z,36.13
2023-07-16T10:37:20.673Z,36.27
2023-07-16T10:39:59.598Z,36.34
2023-07-16T10:42:37.164Z,36.49
2023-07-16T10:45:14.792Z,36.56
2023-07-16T10:48:00.641Z,36.60
2023-07-16T10:50:32.398Z,36.81
2023-07-16T10:53:20.935Z,36.92
2023-07-16T10:56:04.857Z,37.04
2023-07-16T10:58:40.592Z,37.16
2023-07-16T11:01:18.606Z,37.32
2023-07-16T11:03:56.292Z,37.24
2023-07-16T11:06:52.538Z,37.06
2023-07-16T11:09:34.864Z,36.88
2023-07-16T11:12:18.217Z,36.69
2023-07-16T11:14:56.621Z,36.51
2023-07-16T11:17:39.066Z,36.33
2023-07-16T11:20:29.932Z,36.29
2023-07-16T11:23:08.366Z,36.31
2023-07-16T11:25:51.405Z,36.26
2023-07-16T11:28:29.899Z,36.32
2023-07-16T11:31:03.821Z,36.18
2023-07-16T11:33:50.102Z,36.26
2023-07-16T11:36:31.432Z,36.35
2023-07-16T11:39:13.592Z,36.43
2023-07-16T11:42:06.663Z,36.58
2023-07-16T11:44:47.242Z,36.66
2023-07-16T11:47:29.784Z,36.70
2023-07-16T11:50:03.103Z,36.67
2023-07-16T11:52:38.478Z,37.10
2023-07-16T11:55:31.175Z,37.40
2023-07-16T11:58:22.898Z,37.58
2023-07-16T12:00:55.197Z,37.80
2023-07-16T12:03:31.769Z,38.00
2023-07-16T12:06:06.888Z,38.20
2023-07-16T12:08:45.578Z,38.37
2023-07-16T12:11:28.615Z,38.54
2023-07-16T12:14:04.289Z,38.70
2023-07-16T12:16:45.610Z,38.79
2023-07-16T12:19:22.380Z,38.86
2023-07-16T12:22:14.487Z,38.99
2023-07-16T12:24:53.839Z,39.10
2023-07-16T12:27:36.769Z,39.27
2023-07-16T12:30:16.888Z,39.40
2023-07-16T12:32:50.694Z,39.52
2023-07-16T12:35:30.174Z,39.47
2023-07-16T12:38:10.969Z,39.59
2023-07-16T12:43:44.574Z,39.62
2023-07-16T12:46:27.778Z,39.89
2023-07-16T12:49:15.968Z,39.90
2023-07-16T12:51:50.890Z,39.97
2023-07-16T12:54:33.537Z,40.06
2023-07-16T12:57:15.634Z,40.18
2023-07-16T13:02:51.161Z,40.47
2023-07-16T13:05:27.255Z,40.62
2023-07-16T13:08:07.054Z,40.69
2023-07-16T13:10:42.539Z,40.86
2023-07-16T13:13:33.937Z,40.77
2023-07-16T13:16:09.032Z,40.57
2023-07-16T13:18:48.728Z,40.50
2023-07-16T13:21:28.432Z,40.46
2023-07-16T13:24:12.483Z,40.72
2023-07-16T13:26:53.469Z,40.89
2023-07-16T13:29:32.015Z,40.92
2023-07-16T13:32:09.984Z,41.13
2023-07-16T13:34:58.556Z,41.23
2023-07-16T13:37:36.036Z,41.42
2023-07-16T13:40:24.277Z,41.54
2023-07-16T13:43:01.283Z,41.60
2023-07-16T13:45:56.597Z,41.77
2023-07-16T13:48:56.868Z,41.89
2023-07-16T13:51:44.154Z,42.00
2023-07-16T13:54:22.796Z,42.10
2023-07-16T13:56:56.108Z,42.23
2023-07-16T13:59:29.970Z,42.25
2023-07-16T14:02:09.635Z,42.10
2023-07-16T14:04:46.250Z,42.05
2023-07-16T14:07:27.552Z,42.05
2023-07-16T14:10:14.800Z,42.11
2023-07-16T14:12:54.516Z,42.18
2023-07-16T14:15:36.203Z,42.29
2023-07-16T14:18:12.974Z,42.23
2023-07-16T14:20:47.906Z,42.47
2023-07-16T14:23:28.436Z,42.51
2023-07-16T14:26:06.080Z,42.64
2023-07-16T14:28:50.450Z,42.78
2023-07-16T14:31:27.157Z,42.84
2023-07-16T14:34:11.761Z,42.67
2023-07-16T14:36:50.598Z,42.70
2023-07-16T14:39:31.090Z,42.75
2023-07-16T14:42:10.551Z,42.73
2023-07-16T14:44:54.238Z,42.76
2023-07-16T14:47:37.188Z,42.75
2023-07-16T14:50:24.995Z,42.76
2023-07-16T14:53:08.019Z,42.63
2023-07-16T14:56:04.067Z,42.56
2023-07-16T14:58:39.234Z,42.44
2023-07-16T15:01:15.306Z,42.39
2023-07-16T15:03:50.592Z,42.35
2023-07-16T15:06:28.104Z,42.21
2023-07-16T15:09:06.664Z,42.07
2023-07-16T15:11:55.796Z,41.78
2023-07-16T15:14:28.481Z,41.53
2023-07-16T15:17:06.416Z,41.36
2023-07-16T15:19:49.024Z,41.14
2023-07-16T15:22:29.249Z,40.98
2023-07-16T15:25:10.028Z,40.81
2023-07-16T15:27:49.386Z,40.57
2023-07-16T15:30:23.838Z,40.41
2023-07-16T15:33:09.098Z,40.24
2023-07-16T15:35:59.741Z,40.10
2023-07-16T15:38:36.264Z,39.97
2023-07-16T15:44:29.789Z,39.73
2023-07-16T15:47:08.811Z,39.69
2023-07-16T15:49:45.411Z,39.63
2023-07-16T15:52:19.935Z,39.42
2023-07-16T15:54:53.114Z,39.48
2023-07-16T15:57:29.051Z,39.44
2023-07-16T16:00:14.233Z,39.41
2023-07-16T16:03:00.640Z,39.42
2023-07-16T16:05:40.618Z,39.45
2023-07-16T16:08:38.425Z,39.42
2023-07-16T16:11:11.630Z,39.36
2023-07-16T16:13:52.537Z,39.32
2023-07-16T16:16:37.030Z,39.24
2023-07-16T16:19:15.416Z,39.08
2023-07-16T16:22:02.260Z,39.12
2023-07-16T16:24:41.504Z,39.07
2023-07-16T16:27:20.643Z,39.03
2023-07-16T16:29:53.421Z,38.85
2023-07-16T16:32:38.096Z,38.83
2023-07-16T16:35:18.179Z,38.70
2023-07-16T16:38:07.274Z,38.64
2023-07-16T16:40:40.099Z,38.53
2023-07-16T16:43:23.084Z,38.48
2023-07-16T16:45:57.378Z,38.41
2023-07-16T16:48:43.609Z,38.31
2023-07-16T16:51:26.635Z,38.16
2023-07-16T16:54:18.230Z,37.98
2023-07-16T16:57:04.542Z,37.74
2023-07-16T16:59:44.866Z,37.61
2023-07-16T17:05:26.166Z,37.27
2023-07-16T17:08:02.407Z,37.08
2023-07-16T17:10:49.112Z,37.17
2023-07-16T17:13:23.813Z,37.17
2023-07-16T17:15:59.126Z,37.15
2023-07-16T17:18:33.795Z,37.11
2023-07-16T17:21:13.907Z,37.03
2023-07-16T17:23:54.131Z,37.16
2023-07-16T17:26:35.441Z,37.31
2023-07-16T17:29:13.302Z,37.30
2023-07-16T17:31:51.369Z,37.36
2023-07-16T17:34:27.098Z,37.40
2023-07-16T17:37:06.063Z,37.40
2023-07-16T17:39:53.303Z,37.42
2023-07-16T17:42:26.101Z,37.40
2023-07-16T17:45:05.646Z,37.37
2023-07-16T17:47:40.631Z,37.19
2023-07-16T17:50:21.317Z,37.16
2023-07-16T17:53:13.717Z,37.07
2023-07-16T17:55:48.349Z,36.96
2023-07-16T17:58:31.149Z,36.78
2023-07-16T18:01:19.425Z,36.60
2023-07-16T18:04:04.623Z,36.45
2023-07-16T18:06:42.241Z,36.32
2023-07-16T18:09:37.975Z,36.21
2023-07-16T18:12:16.916Z,36.11
2023-07-16T18:14:55.885Z,36.07
2023-07-16T18:17:33.104Z,35.97
2023-07-16T18:20:08.911Z,35.83
2023-07-16T18:22:49.575Z,35.62
2023-07-16T18:25:31.005Z,35.64
2023-07-16T18:28:17.119Z,35.51
2023-07-16T18:30:50.104Z,35.39
2023-07-16T18:33:27.795Z,35.28
2023-07-16T18:36:03.636Z,35.12
2023-07-16T18:38:41.136Z,35.04
2023-07-16T18:41:26.552Z,34.94
2023-07-16T18:44:06.647Z,34.83
2023-07-16T18:46:46.439Z,34.80
2023-07-16T18:49:35.777Z,34.75
2023-07-16T18:52:10.559Z,34.71
2023-07-16T18:54:54.474Z,34.64
2023-07-16T18:57:35.467Z,34.62
2023-07-16T19:00:23.996Z,34.47
2023-07-16T19:03:57.832Z,34.42
2023-07-16T19:06:29.431Z,34.35
2023-07-16T19:09:08.872Z,34.37
2023-07-16T19:11:45.157Z,34.36
2023-07-16T19:14:28.343Z,34.31
2023-07-16T19:17:06.013Z,34.22
2023-07-16T19:19:45.211Z,34.08
2023-07-16T19:22:18.184Z,34.11
2023-07-16T19:25:00.693Z,34.03
2023-07-16T19:27:38.614Z,33.98
2023-07-16T19:30:33.174Z,33.90
2023-07-16T19:33:11.685Z,33.80
2023-07-16T19:36:05.070Z,33.70
2023-07-16T19:38:55.525Z,33.59
2023-07-16T19:41:37.054Z,33.53
2023-07-16T19:44:17.715Z,33.49
2023-07-16T19:47:08.931Z,33.38
2023-07-16T19:49:46.042Z,33.32
2023-07-16T19:52:20.115Z,33.35
2023-07-16T19:54:50.440Z,33.31
2023-07-16T19:57:25.639Z,33.24
2023-07-16T20:00:05.376Z,33.12
2023-07-16T20:03:08.861Z,33.08
2023-07-16T20:05:50.271Z,33.10
2023-07-16T20:08:28.943Z,33.01
2023-07-16T20:11:09.924Z,32.91
2023-07-16T20:13:42.643Z,32.56
2023-07-16T20:16:19.674Z,32.74
2023-07-16T20:18:57.406Z,32.80
2023-07-16T20:21:28.084Z,32.75
2023-07-16T20:24:01.798Z,32.72
2023-07-16T20:26:44.716Z,32.58
2023-07-16T20:29:18.227Z,32.64
2023-07-16T20:31:54.044Z,32.65
2023-07-16T20:34:48.028Z,32.66
2023-07-16T20:37:27.216Z,32.57
2023-07-16T20:40:03.223Z,32.48
2023-07-16T20:42:42.872Z,32.43
2023-07-16T20:45:35.013Z,32.44
2023-07-16T20:48:10.788Z,32.37
2023-07-16T20:51:00.264Z,32.10
2023-07-16T20:53:36.862Z,32.13
2023-07-16T20:56:24.093Z,32.13
2023-07-16T20:59:19.218Z,32.12
2023-07-16T21:02:03.586Z,32.11
2023-07-16T21:04:42.641Z,32.02
2023-07-16T21:07:22.214Z,32.12
2023-07-16T21:10:00.332Z,32.09
2023-07-16T21:12:45.410Z,32.09
2023-07-16T21:15:25.867Z,32.01
2023-07-16T21:18:02.041Z,32.03
2023-07-16T21:20:42.932Z,32.01
2023-07-16T21:26:08.770Z,31.90
2023-07-16T21:28:47.085Z,31.89
2023-07-16T21:31:34.830Z,31.83
2023-07-16T21:36:54.670Z,31.79
2023-07-16T21:39:35.236Z,31.58
2023-07-16T21:42:16.512Z,31.72
2023-07-16T21:44:59.589Z,31.61
2023-07-16T21:47:37.298Z,31.63
2023-07-16T21:50:15.930Z,31.58
2023-07-16T21:53:01.183Z,31.52
2023-07-16T21:55:52.338Z,31.46
2023-07-16T21:58:30.269Z,31.33
2023-07-16T22:01:06.445Z,31.41
2023-07-16T22:03:46.607Z,31.34
2023-07-16T22:06:31.232Z,31.30
2023-07-16T22:09:09.139Z,31.27
2023-07-16T22:11:48.867Z,31.20
2023-07-16T22:14:35.461Z,31.13
2023-07-16T22:17:12.825Z,31.06
2023-07-16T22:19:48.454Z,30.87
2023-07-16T22:22:30.317Z,30.92
2023-07-16T22:25:15.330Z,30.87
2023-07-16T22:27:59.898Z,30.80
2023-07-16T22:30:35.540Z,30.73
2023-07-16T22:33:10.914Z,30.72
2023-07-16T22:35:54.683Z,30.64
2023-07-16T22:38:36.660Z,30.55
2023-07-16T22:41:16.313Z,30.24
2023-07-16T22:43:56.980Z,30.39
2023-07-16T22:46:35.945Z,30.32
2023-07-16T22:49:19.698Z,30.29
2023-07-16T22:51:58.724Z,30.20
2023-07-16T22:54:35.245Z,30.13
2023-07-16T22:57:16.313Z,30.11
2023-07-16T22:59:57.599Z,30.11
2023-07-16T23:02:30.127Z,30.10
2023-07-16T23:05:24.526Z,30.10
2023-07-16T23:08:08.752Z,30.10
2023-07-16T23:10:47.362Z,30.06
2023-07-16T23:13:24.852Z,30.07
2023-07-16T23:16:08.000Z,30.04
2023-07-16T23:18:50.035Z,30.01
2023-07-16T23:21:25.275Z,29.96
2023-07-16T23:24:00.207Z,29.80
2023-07-16T23:26:40.817Z,29.78
2023-07-16T23:29:19.876Z,29.79
2023-07-16T23:32:02.631Z,29.71
2023-07-16T23:34:41.906Z,29.65
2023-07-16T23:37:15.842Z,29.54
2023-07-16T23:39:53.443Z,29.57
2023-07-16T23:42:36.108Z,29.53
2023-07-16T23:45:32.611Z,29.35
2023-07-16T23:48:16.190Z,29.47
2023-07-16T23:50:52.040Z,29.44
2023-07-16T23:53:34.036Z,29.48
2023-07-16T23:56:04.300Z,29.47
2023-07-16T23:58:37.224Z,29.41
